TimeCDT,TemperatureF,Dew PointF,Humidity,Sea Level PressureIn,VisibilityMPH,Wind Direction,Wind SpeedMPH,Gust SpeedMPH,PrecipitationIn,Events,Conditions,WindDirDegrees,DateUTC
4:35 AM,35.6,26.6,70,29.98,10.0,WNW,4.6,-,N/A,,Clear,290,2014-04-09 09:35:00
4:55 AM,33.8,26.6,75,29.98,10.0,Calm,Calm,-,N/A,,Clear,0,2014-04-09 09:55:00
5:15 AM,30.2,26.6,86,29.98,10.0,Calm,Calm,-,N/A,,Clear,0,2014-04-09 10:15:00
5:35 AM,32.0,26.6,80,29.99,10.0,Calm,Calm,-,N/A,,Clear,0,2014-04-09 10:35:00
5:55 AM,32.0,26.6,80,30.01,10.0,West,3.5,-,N/A,,Clear,280,2014-04-09 10:55:00
6:15 AM,30.2,24.8,80,30.01,10.0,Calm,Calm,-,N/A,,Clear,0,2014-04-09 11:15:00
6:35 AM,32.0,26.6,80,30.01,10.0,Calm,Calm,-,N/A,,Clear,0,2014-04-09 11:35:00
6:55 AM,32.0,26.6,80,30.01,10.0,West,4.6,-,N/A,,Clear,280,2014-04-09 11:55:00
7:15 AM,33.8,26.6,75,30.03,10.0,WNW,3.5,-,N/A,,Clear,290,2014-04-09 12:15:00
7:35 AM,37.4,30.2,75,30.03,10.0,West,4.6,-,N/A,,Clear,280,2014-04-09 12:35:00
7:55 AM,39.2,32.0,75,30.03,10.0,WNW,4.6,-,N/A,,Clear,290,2014-04-09 12:55:00
8:15 AM,42.8,33.8,70,30.04,10.0,WNW,5.8,-,N/A,,Clear,290,2014-04-09 13:15:00
8:35 AM,44.6,33.8,66,30.04,10.0,WNW,5.8,-,N/A,,Clear,290,2014-04-09 13:35:00
8:55 AM,46.4,33.8,62,30.04,10.0,WNW,5.8,-,N/A,,Clear,300,2014-04-09 13:55:00
9:15 AM,48.2,33.8,58,30.04,10.0,WNW,4.6,-,N/A,,Clear,300,2014-04-09 14:15:00
9:35 AM,48.2,33.8,58,30.04,10.0,West,5.8,-,N/A,,Clear,280,2014-04-09 14:35:00
9:55 AM,51.8,33.8,50,30.04,10.0,WSW,4.6,-,N/A,,Clear,240,2014-04-09 14:55:00
10:15 AM,53.6,33.8,47,30.04,10.0,WSW,4.6,-,N/A,,Clear,250,2014-04-09 15:15:00
10:35 AM,53.6,33.8,47,30.04,10.0,WSW,8.1,-,N/A,,Clear,250,2014-04-09 15:35:00
10:55 AM,55.4,33.8,44,30.04,10.0,West,9.2,16.1,N/A,,Clear,280,2014-04-09 15:55:00
11:15 AM,57.2,33.8,41,30.04,10.0,WSW,11.5,17.3,N/A,,Clear,250,2014-04-09 16:15:00
11:35 AM,57.2,33.8,41,30.04,10.0,West,13.8,-,N/A,,Clear,260,2014-04-09 16:35:00
11:55 AM,57.2,33.8,41,30.03,10.0,West,12.7,24.2,N/A,,Clear,270,2014-04-09 16:55:00
12:15 PM,57.2,33.8,41,30.01,10.0,West,11.5,17.3,N/A,,Clear,270,2014-04-09 17:15:00
12:35 PM,59.0,32.0,36,30.00,10.0,West,11.5,16.1,N/A,,Clear,260,2014-04-09 17:35:00
12:55 PM,59.0,32.0,36,29.99,10.0,West,11.5,16.1,N/A,,Clear,270,2014-04-09 17:55:00
1:15 PM,60.8,32.0,34,29.99,10.0,WSW,11.5,16.1,N/A,,Clear,250,2014-04-09 18:15:00
1:35 PM,60.8,30.2,31,29.98,10.0,SW,6.9,-,N/A,,Clear,230,2014-04-09 18:35:00
1:55 PM,60.8,30.2,31,29.97,10.0,WSW,9.2,-,N/A,,Clear,250,2014-04-09 18:55:00
2:15 PM,60.8,28.4,29,29.96,10.0,WSW,8.1,-,N/A,,Clear,250,2014-04-09 19:15:00
2:35 PM,62.6,28.4,27,29.95,10.0,WSW,5.8,-,N/A,,Clear,250,2014-04-09 19:35:00
2:55 PM,62.6,28.4,27,29.94,10.0,WSW,6.9,16.1,N/A,,Clear,240,2014-04-09 19:55:00
3:15 PM,62.6,26.6,26,29.93,10.0,WSW,8.1,17.3,N/A,,Clear,250,2014-04-09 20:15:00
3:35 PM,62.6,28.4,27,29.91,10.0,SW,8.1,16.1,N/A,,Clear,230,2014-04-09 20:35:00
3:55 PM,64.4,30.2,28,29.90,10.0,SW,8.1,16.1,N/A,,Clear,230,2014-04-09 20:55:00
4:15 PM,64.4,28.4,26,29.88,10.0,SSW,9.2,-,N/A,,Clear,210,2014-04-09 21:15:00
4:35 PM,64.4,30.2,28,29.88,10.0,WSW,5.8,-,N/A,,Clear,240,2014-04-09 21:35:00
4:55 PM,64.4,30.2,28,29.87,10.0,SW,8.1,16.1,N/A,,Clear,220,2014-04-09 21:55:00
5:15 PM,64.4,30.2,28,29.86,10.0,SSW,9.2,-,N/A,,Mostly Cloudy,210,2014-04-09 22:15:00
5:35 PM,64.4,30.2,28,29.85,10.0,SW,8.1,-,N/A,,Partly Cloudy,230,2014-04-09 22:35:00
5:55 PM,64.4,30.2,28,29.84,10.0,SSW,9.2,19.6,N/A,,Clear,210,2014-04-09 22:55:00
6:15 PM,62.6,30.2,30,29.83,10.0,SSW,6.9,-,N/A,,Clear,210,2014-04-09 23:15:00
6:35 PM,62.6,30.2,30,29.83,10.0,SW,5.8,-,N/A,,Clear,220,2014-04-09 23:35:00
6:55 PM,60.8,33.8,36,29.84,10.0,SSW,6.9,-,N/A,,Clear,210,2014-04-09 23:55:00
7:15 PM,59.0,33.8,39,29.84,10.0,SW,4.6,-,N/A,,Clear,220,2014-04-10 00:15:00
7:35 PM,57.2,33.8,41,29.83,10.0,SW,4.6,-,N/A,,Clear,220,2014-04-10 00:35:00
7:55 PM,57.2,33.8,41,29.83,10.0,SSW,5.8,-,N/A,,Clear,210,2014-04-10 00:55:00
8:15 PM,57.2,33.8,41,29.85,10.0,Calm,Calm,-,N/A,,Clear,0,2014-04-10 01:15:00
8:35 PM,55.4,33.8,44,29.86,10.0,Calm,Calm,-,N/A,,Clear,0,2014-04-10 01:35:00
8:55 PM,53.6,33.8,47,29.86,10.0,Calm,Calm,-,N/A,,Clear,0,2014-04-10 01:55:00
9:15 PM,53.6,33.8,47,29.86,10.0,SSW,3.5,-,N/A,,Clear,210,2014-04-10 02:15:00
9:35 PM,53.6,33.8,47,29.86,10.0,Calm,Calm,-,N/A,,Clear,0,2014-04-10 02:35:00
9:55 PM,53.6,33.8,47,29.86,10.0,SSW,4.6,-,N/A,,Clear,200,2014-04-10 02:55:00
10:15 PM,53.6,33.8,47,29.85,10.0,South,5.8,-,N/A,,Clear,190,2014-04-10 03:15:00
10:35 PM,53.6,33.8,47,29.84,10.0,South,6.9,-,N/A,,Clear,180,2014-04-10 03:35:00
10:55 PM,53.6,33.8,47,29.83,10.0,South,6.9,-,N/A,,Clear,180,2014-04-10 03:55:00
11:15 PM,51.8,33.8,50,29.83,10.0,South,8.1,-,N/A,,Clear,180,2014-04-10 04:15:00
11:35 PM,51.8,33.8,50,29.82,10.0,South,8.1,-,N/A,,Clear,180,2014-04-10 04:35:00
11:55 PM,51.8,33.8,50,29.81,10.0,South,5.8,-,N/A,,Clear,180,2014-04-10 04:55:00